sensor_id;sensor_type;location;lat;lon;timestamp;P1;durP1;ratioP1;P2;durP2;ratioP2
13785;SDS011;47474;48.824;9.384;2023-02-28T00:00:06;2.93;;;2.17;;
13785;SDS011;47474;48.824;9.384;2023-02-28T00:02:35;2.97;;;2.10;;
13785;SDS011;47474;48.824;9.384;2023-02-28T00:05:03;2.50;;;2.30;;
13785;SDS011;47474;48.824;9.384;2023-02-28T00:07:30;3.30;;;2.40;;
13785;SDS011;47474;48.824;9.384;2023-02-28T00:09:57;4.27;;;2.33;;
13785;SDS011;47474;48.824;9.384;2023-02-28T00:12:24;4.37;;;2.50;;
13785;SDS011;47474;48.824;9.384;2023-02-28T00:14:50;2.20;;;2.00;;
13785;SDS011;47474;48.824;9.384;2023-02-28T00:17:17;3.90;;;2.73;;
13785;SDS011;47474;48.824;9.384;2023-02-28T00:19:46;3.73;;;2.17;;
13785;SDS011;47474;48.824;9.384;2023-02-28T00:22:14;4.60;;;2.60;;
13785;SDS011;47474;48.824;9.384;2023-02-28T00:24:41;2.53;;;2.33;;
13785;SDS011;47474;48.824;9.384;2023-02-28T00:27:07;3.27;;;2.30;;
13785;SDS011;47474;48.824;9.384;2023-02-28T00:29:34;2.67;;;2.10;;
13785;SDS011;47474;48.824;9.384;2023-02-28T00:32:00;3.07;;;2.03;;
13785;SDS011;47474;48.824;9.384;2023-02-28T00:34:27;3.33;;;2.23;;
13785;SDS011;47474;48.824;9.384;2023-02-28T00:36:54;2.73;;;2.10;;
13785;SDS011;47474;48.824;9.384;2023-02-28T00:39:21;4.20;;;2.90;;
13785;SDS011;47474;48.824;9.384;2023-02-28T00:41:48;7.33;;;2.77;;
13785;SDS011;47474;48.824;9.384;2023-02-28T00:44:14;3.00;;;2.50;;
13785;SDS011;47474;48.824;9.384;2023-02-28T00:46:41;3.07;;;2.00;;
13785;SDS011;47474;48.824;9.384;2023-02-28T00:49:07;3.90;;;2.30;;
13785;SDS011;47474;48.824;9.384;2023-02-28T00:51:34;5.13;;;2.37;;
13785;SDS011;47474;48.824;9.384;2023-02-28T00:54:00;3.83;;;2.83;;
13785;SDS011;47474;48.824;9.384;2023-02-28T00:56:28;2.53;;;2.33;;
13785;SDS011;47474;48.824;9.384;2023-02-28T00:58:54;4.73;;;2.70;;
13785;SDS011;47474;48.824;9.384;2023-02-28T01:01:21;3.87;;;2.50;;
13785;SDS011;47474;48.824;9.384;2023-02-28T01:03:47;4.43;;;2.70;;
13785;SDS011;47474;48.824;9.384;2023-02-28T01:06:14;2.97;;;2.67;;
13785;SDS011;47474;48.824;9.384;2023-02-28T01:08:40;5.17;;;2.70;;
13785;SDS011;47474;48.824;9.384;2023-02-28T01:11:07;2.87;;;2.23;;
13785;SDS011;47474;48.824;9.384;2023-02-28T01:13:36;4.03;;;2.50;;
13785;SDS011;47474;48.824;9.384;2023-02-28T01:16:02;2.70;;;2.50;;
13785;SDS011;47474;48.824;9.384;2023-02-28T01:18:29;3.87;;;2.83;;
13785;SDS011;47474;48.824;9.384;2023-02-28T01:20:56;7.57;;;2.87;;
13785;SDS011;47474;48.824;9.384;2023-02-28T01:23:23;4.00;;;2.73;;
13785;SDS011;47474;48.824;9.384;2023-02-28T01:25:50;3.37;;;2.60;;
13785;SDS011;47474;48.824;9.384;2023-02-28T01:28:16;3.07;;;2.67;;
13785;SDS011;47474;48.824;9.384;2023-02-28T01:30:46;3.50;;;2.53;;
13785;SDS011;47474;48.824;9.384;2023-02-28T01:33:13;4.07;;;2.80;;
13785;SDS011;47474;48.824;9.384;2023-02-28T01:35:40;3.10;;;2.80;;
13785;SDS011;47474;48.824;9.384;2023-02-28T01:38:06;4.03;;;2.87;;
13785;SDS011;47474;48.824;9.384;2023-02-28T01:40:33;3.67;;;3.13;;
13785;SDS011;47474;48.824;9.384;2023-02-28T01:42:59;3.97;;;2.67;;
13785;SDS011;47474;48.824;9.384;2023-02-28T01:45:26;2.97;;;2.53;;
13785;SDS011;47474;48.824;9.384;2023-02-28T01:47:56;3.57;;;2.83;;
13785;SDS011;47474;48.824;9.384;2023-02-28T01:50:25;4.37;;;2.80;;
13785;SDS011;47474;48.824;9.384;2023-02-28T01:52:54;3.00;;;2.70;;
13785;SDS011;47474;48.824;9.384;2023-02-28T01:55:22;3.37;;;2.90;;
13785;SDS011;47474;48.824;9.384;2023-02-28T01:57:54;3.17;;;2.70;;
13785;SDS011;47474;48.824;9.384;2023-02-28T02:00:22;5.83;;;3.20;;
13785;SDS011;47474;48.824;9.384;2023-02-28T02:02:52;3.70;;;2.93;;
13785;SDS011;47474;48.824;9.384;2023-02-28T02:05:22;4.30;;;3.03;;
13785;SDS011;47474;48.824;9.384;2023-02-28T02:07:50;3.13;;;2.43;;
13785;SDS011;47474;48.824;9.384;2023-02-28T02:10:19;3.20;;;2.80;;
13785;SDS011;47474;48.824;9.384;2023-02-28T02:12:54;3.43;;;2.90;;
13785;SDS011;47474;48.824;9.384;2023-02-28T02:15:29;3.73;;;3.03;;
13785;SDS011;47474;48.824;9.384;2023-02-28T02:17:57;4.77;;;3.00;;
13785;SDS011;47474;48.824;9.384;2023-02-28T02:20:44;3.50;;;2.70;;
13785;SDS011;47474;48.824;9.384;2023-02-28T02:26:40;3.60;;;2.97;;
13785;SDS011;47474;48.824;9.384;2023-02-28T02:32:37;3.67;;;2.83;;
13785;SDS011;47474;48.824;9.384;2023-02-28T02:35:27;4.20;;;3.17;;
13785;SDS011;47474;48.824;9.384;2023-02-28T02:37:57;3.87;;;3.43;;
13785;SDS011;47474;48.824;9.384;2023-02-28T02:40:30;3.30;;;2.97;;
13785;SDS011;47474;48.824;9.384;2023-02-28T02:43:00;3.53;;;3.07;;
13785;SDS011;47474;48.824;9.384;2023-02-28T02:45:28;4.63;;;2.90;;
13785;SDS011;47474;48.824;9.384;2023-02-28T02:48:00;4.87;;;3.37;;
13785;SDS011;47474;48.824;9.384;2023-02-28T02:50:30;4.50;;;3.57;;
13785;SDS011;47474;48.824;9.384;2023-02-28T02:53:00;4.30;;;3.40;;
13785;SDS011;47474;48.824;9.384;2023-02-28T02:55:27;4.33;;;3.17;;
13785;SDS011;47474;48.824;9.384;2023-02-28T02:57:54;4.63;;;2.93;;
13785;SDS011;47474;48.824;9.384;2023-02-28T03:00:25;4.77;;;3.33;;
13785;SDS011;47474;48.824;9.384;2023-02-28T03:02:54;5.83;;;3.33;;
13785;SDS011;47474;48.824;9.384;2023-02-28T03:05:21;5.87;;;3.57;;
13785;SDS011;47474;48.824;9.384;2023-02-28T03:07:51;5.50;;;3.90;;
13785;SDS011;47474;48.824;9.384;2023-02-28T03:13:27;4.43;;;3.67;;
13785;SDS011;47474;48.824;9.384;2023-02-28T03:16:17;4.97;;;3.37;;
13785;SDS011;47474;48.824;9.384;2023-02-28T03:18:57;4.87;;;3.37;;
13785;SDS011;47474;48.824;9.384;2023-02-28T03:21:38;4.90;;;3.70;;
13785;SDS011;47474;48.824;9.384;2023-02-28T03:24:10;5.23;;;3.20;;
13785;SDS011;47474;48.824;9.384;2023-02-28T03:26:39;4.73;;;3.07;;
13785;SDS011;47474;48.824;9.384;2023-02-28T03:29:09;4.83;;;3.43;;
13785;SDS011;47474;48.824;9.384;2023-02-28T03:31:43;5.03;;;3.30;;
13785;SDS011;47474;48.824;9.384;2023-02-28T03:34:12;3.77;;;3.43;;
13785;SDS011;47474;48.824;9.384;2023-02-28T03:36:41;5.03;;;3.57;;
13785;SDS011;47474;48.824;9.384;2023-02-28T03:39:13;4.07;;;3.43;;
13785;SDS011;47474;48.824;9.384;2023-02-28T03:41:42;5.60;;;3.13;;
13785;SDS011;47474;48.824;9.384;2023-02-28T03:44:10;5.23;;;3.60;;
13785;SDS011;47474;48.824;9.384;2023-02-28T03:49:09;4.77;;;4.20;;
13785;SDS011;47474;48.824;9.384;2023-02-28T03:51:38;4.33;;;3.27;;
13785;SDS011;47474;48.824;9.384;2023-02-28T03:54:06;4.70;;;3.67;;
13785;SDS011;47474;48.824;9.384;2023-02-28T03:56:38;5.83;;;3.37;;
13785;SDS011;47474;48.824;9.384;2023-02-28T03:59:08;5.27;;;3.47;;
13785;SDS011;47474;48.824;9.384;2023-02-28T04:01:39;4.90;;;2.97;;
13785;SDS011;47474;48.824;9.384;2023-02-28T04:04:07;4.90;;;3.40;;
13785;SDS011;47474;48.824;9.384;2023-02-28T04:06:34;6.60;;;3.57;;
13785;SDS011;47474;48.824;9.384;2023-02-28T04:09:01;3.80;;;3.23;;
13785;SDS011;47474;48.824;9.384;2023-02-28T04:11:30;3.63;;;3.33;;
13785;SDS011;47474;48.824;9.384;2023-02-28T04:14:01;4.50;;;3.40;;
13785;SDS011;47474;48.824;9.384;2023-02-28T04:16:28;4.77;;;3.43;;
13785;SDS011;47474;48.824;9.384;2023-02-28T04:18:54;6.50;;;3.37;;
13785;SDS011;47474;48.824;9.384;2023-02-28T04:21:26;4.03;;;3.53;;
13785;SDS011;47474;48.824;9.384;2023-02-28T04:23:53;4.47;;;3.87;;
13785;SDS011;47474;48.824;9.384;2023-02-28T04:26:20;3.63;;;3.23;;
13785;SDS011;47474;48.824;9.384;2023-02-28T04:28:46;5.70;;;3.93;;
13785;SDS011;47474;48.824;9.384;2023-02-28T04:31:14;6.30;;;4.33;;
13785;SDS011;47474;48.824;9.384;2023-02-28T04:33:41;4.17;;;3.50;;
13785;SDS011;47474;48.824;9.384;2023-02-28T04:36:08;6.83;;;4.03;;
13785;SDS011;47474;48.824;9.384;2023-02-28T04:38:35;3.80;;;3.20;;
13785;SDS011;47474;48.824;9.384;2023-02-28T04:41:03;4.10;;;3.70;;
13785;SDS011;47474;48.824;9.384;2023-02-28T04:43:31;6.60;;;3.83;;
13785;SDS011;47474;48.824;9.384;2023-02-28T04:45:59;4.63;;;3.60;;
13785;SDS011;47474;48.824;9.384;2023-02-28T04:48:28;3.83;;;3.43;;
13785;SDS011;47474;48.824;9.384;2023-02-28T04:50:59;4.97;;;3.97;;
13785;SDS011;47474;48.824;9.384;2023-02-28T04:53:27;6.27;;;4.07;;
13785;SDS011;47474;48.824;9.384;2023-02-28T04:55:54;5.43;;;4.00;;
13785;SDS011;47474;48.824;9.384;2023-02-28T04:58:20;4.53;;;4.00;;
13785;SDS011;47474;48.824;9.384;2023-02-28T05:00:48;4.90;;;4.20;;
13785;SDS011;47474;48.824;9.384;2023-02-28T05:03:15;4.90;;;4.20;;
13785;SDS011;47474;48.824;9.384;2023-02-28T05:05:43;5.43;;;4.40;;
13785;SDS011;47474;48.824;9.384;2023-02-28T05:08:09;4.27;;;3.63;;
13785;SDS011;47474;48.824;9.384;2023-02-28T05:10:36;4.70;;;4.20;;
13785;SDS011;47474;48.824;9.384;2023-02-28T05:13:03;7.10;;;4.50;;
13785;SDS011;47474;48.824;9.384;2023-02-28T05:15:29;6.20;;;4.30;;
13785;SDS011;47474;48.824;9.384;2023-02-28T05:17:56;5.67;;;3.73;;
13785;SDS011;47474;48.824;9.384;2023-02-28T05:20:22;5.10;;;3.83;;
13785;SDS011;47474;48.824;9.384;2023-02-28T05:22:50;5.77;;;4.37;;
13785;SDS011;47474;48.824;9.384;2023-02-28T05:25:19;6.40;;;4.50;;
13785;SDS011;47474;48.824;9.384;2023-02-28T05:27:46;6.07;;;4.43;;
13785;SDS011;47474;48.824;9.384;2023-02-28T05:30:13;5.50;;;4.30;;
13785;SDS011;47474;48.824;9.384;2023-02-28T05:32:40;6.23;;;4.07;;
13785;SDS011;47474;48.824;9.384;2023-02-28T05:35:09;5.87;;;4.53;;
13785;SDS011;47474;48.824;9.384;2023-02-28T05:37:36;4.77;;;3.80;;
13785;SDS011;47474;48.824;9.384;2023-02-28T05:40:05;6.63;;;4.63;;
13785;SDS011;47474;48.824;9.384;2023-02-28T05:42:35;5.67;;;4.03;;
13785;SDS011;47474;48.824;9.384;2023-02-28T05:45:02;4.93;;;4.37;;
13785;SDS011;47474;48.824;9.384;2023-02-28T05:47:28;8.03;;;4.13;;
13785;SDS011;47474;48.824;9.384;2023-02-28T05:49:55;5.23;;;4.50;;
13785;SDS011;47474;48.824;9.384;2023-02-28T05:52:21;5.63;;;4.40;;
13785;SDS011;47474;48.824;9.384;2023-02-28T05:54:48;6.27;;;4.17;;
13785;SDS011;47474;48.824;9.384;2023-02-28T05:57:16;6.77;;;4.30;;
13785;SDS011;47474;48.824;9.384;2023-02-28T05:59:42;5.70;;;4.50;;
13785;SDS011;47474;48.824;9.384;2023-02-28T06:02:10;6.90;;;4.73;;
13785;SDS011;47474;48.824;9.384;2023-02-28T06:04:38;6.83;;;4.50;;
13785;SDS011;47474;48.824;9.384;2023-02-28T06:07:05;6.63;;;4.20;;
13785;SDS011;47474;48.824;9.384;2023-02-28T06:09:32;5.43;;;4.20;;
13785;SDS011;47474;48.824;9.384;2023-02-28T06:11:59;4.93;;;4.37;;
13785;SDS011;47474;48.824;9.384;2023-02-28T06:14:29;6.70;;;4.87;;
13785;SDS011;47474;48.824;9.384;2023-02-28T06:16:56;7.33;;;4.90;;
13785;SDS011;47474;48.824;9.384;2023-02-28T06:19:23;7.40;;;5.00;;
13785;SDS011;47474;48.824;9.384;2023-02-28T06:21:50;5.13;;;4.57;;
13785;SDS011;47474;48.824;9.384;2023-02-28T06:24:17;6.77;;;4.97;;
13785;SDS011;47474;48.824;9.384;2023-02-28T06:26:44;8.73;;;5.17;;
13785;SDS011;47474;48.824;9.384;2023-02-28T06:29:10;6.73;;;5.03;;
13785;SDS011;47474;48.824;9.384;2023-02-28T06:31:38;6.20;;;4.77;;
13785;SDS011;47474;48.824;9.384;2023-02-28T06:34:05;6.83;;;4.57;;
13785;SDS011;47474;48.824;9.384;2023-02-28T06:36:31;8.13;;;4.93;;
13785;SDS011;47474;48.824;9.384;2023-02-28T06:38:58;8.40;;;5.93;;
13785;SDS011;47474;48.824;9.384;2023-02-28T06:41:25;5.97;;;4.90;;
13785;SDS011;47474;48.824;9.384;2023-02-28T06:43:52;6.37;;;5.00;;
13785;SDS011;47474;48.824;9.384;2023-02-28T06:46:19;6.43;;;5.30;;
13785;SDS011;47474;48.824;9.384;2023-02-28T06:48:47;6.03;;;4.63;;
13785;SDS011;47474;48.824;9.384;2023-02-28T06:51:15;6.50;;;5.37;;
13785;SDS011;47474;48.824;9.384;2023-02-28T06:53:42;7.20;;;4.30;;
13785;SDS011;47474;48.824;9.384;2023-02-28T06:56:09;6.97;;;5.33;;
13785;SDS011;47474;48.824;9.384;2023-02-28T06:58:37;6.63;;;5.00;;
13785;SDS011;47474;48.824;9.384;2023-02-28T07:01:05;7.63;;;5.23;;
13785;SDS011;47474;48.824;9.384;2023-02-28T07:03:32;9.37;;;5.87;;
13785;SDS011;47474;48.824;9.384;2023-02-28T07:06:00;7.83;;;5.10;;
13785;SDS011;47474;48.824;9.384;2023-02-28T07:08:27;7.70;;;5.63;;
13785;SDS011;47474;48.824;9.384;2023-02-28T07:10:54;7.13;;;5.07;;
13785;SDS011;47474;48.824;9.384;2023-02-28T07:13:21;5.80;;;5.23;;
13785;SDS011;47474;48.824;9.384;2023-02-28T07:15:54;6.30;;;5.03;;
13785;SDS011;47474;48.824;9.384;2023-02-28T07:18:22;8.00;;;5.53;;
13785;SDS011;47474;48.824;9.384;2023-02-28T07:20:48;6.00;;;5.00;;
13785;SDS011;47474;48.824;9.384;2023-02-28T07:23:16;8.03;;;5.23;;
13785;SDS011;47474;48.824;9.384;2023-02-28T07:25:43;6.90;;;5.33;;
13785;SDS011;47474;48.824;9.384;2023-02-28T07:28:10;6.73;;;5.57;;
13785;SDS011;47474;48.824;9.384;2023-02-28T07:30:37;6.00;;;5.33;;
13785;SDS011;47474;48.824;9.384;2023-02-28T07:33:03;7.80;;;5.63;;
13785;SDS011;47474;48.824;9.384;2023-02-28T07:35:30;6.17;;;5.23;;
13785;SDS011;47474;48.824;9.384;2023-02-28T07:37:57;6.43;;;5.10;;
13785;SDS011;47474;48.824;9.384;2023-02-28T07:40:25;8.03;;;5.47;;
13785;SDS011;47474;48.824;9.384;2023-02-28T07:42:52;6.80;;;5.73;;
13785;SDS011;47474;48.824;9.384;2023-02-28T07:45:18;7.33;;;6.00;;
13785;SDS011;47474;48.824;9.384;2023-02-28T07:47:45;9.03;;;5.27;;
13785;SDS011;47474;48.824;9.384;2023-02-28T07:50:13;9.93;;;6.63;;
13785;SDS011;47474;48.824;9.384;2023-02-28T07:52:41;7.33;;;5.77;;
13785;SDS011;47474;48.824;9.384;2023-02-28T07:55:09;9.63;;;5.93;;
13785;SDS011;47474;48.824;9.384;2023-02-28T07:57:42;9.80;;;5.80;;
13785;SDS011;47474;48.824;9.384;2023-02-28T08:00:10;10.60;;;6.33;;
13785;SDS011;47474;48.824;9.384;2023-02-28T08:02:38;9.73;;;5.80;;
13785;SDS011;47474;48.824;9.384;2023-02-28T08:05:05;6.93;;;5.20;;
13785;SDS011;47474;48.824;9.384;2023-02-28T08:07:32;7.03;;;5.93;;
13785;SDS011;47474;48.824;9.384;2023-02-28T08:09:59;9.37;;;6.47;;
13785;SDS011;47474;48.824;9.384;2023-02-28T08:12:26;8.13;;;5.63;;
13785;SDS011;47474;48.824;9.384;2023-02-28T08:14:54;7.60;;;5.70;;
13785;SDS011;47474;48.824;9.384;2023-02-28T08:17:20;8.93;;;6.17;;
13785;SDS011;47474;48.824;9.384;2023-02-28T08:19:47;7.83;;;6.00;;
13785;SDS011;47474;48.824;9.384;2023-02-28T08:22:13;9.90;;;6.13;;
13785;SDS011;47474;48.824;9.384;2023-02-28T08:24:40;8.47;;;6.60;;
13785;SDS011;47474;48.824;9.384;2023-02-28T08:27:07;9.53;;;5.57;;
13785;SDS011;47474;48.824;9.384;2023-02-28T08:29:36;7.80;;;6.03;;
13785;SDS011;47474;48.824;9.384;2023-02-28T08:32:04;6.80;;;5.87;;
13785;SDS011;47474;48.824;9.384;2023-02-28T08:34:31;7.37;;;5.60;;
13785;SDS011;47474;48.824;9.384;2023-02-28T08:36:57;7.40;;;6.13;;
13785;SDS011;47474;48.824;9.384;2023-02-28T08:39:24;7.73;;;5.73;;
13785;SDS011;47474;48.824;9.384;2023-02-28T08:41:50;7.33;;;6.03;;
13785;SDS011;47474;48.824;9.384;2023-02-28T08:44:17;7.93;;;6.13;;
13785;SDS011;47474;48.824;9.384;2023-02-28T08:46:43;8.53;;;6.07;;
13785;SDS011;47474;48.824;9.384;2023-02-28T08:49:11;8.73;;;6.70;;
13785;SDS011;47474;48.824;9.384;2023-02-28T08:51:38;9.90;;;6.47;;
13785;SDS011;47474;48.824;9.384;2023-02-28T08:54:04;9.40;;;6.00;;
13785;SDS011;47474;48.824;9.384;2023-02-28T08:56:32;8.17;;;6.43;;
13785;SDS011;47474;48.824;9.384;2023-02-28T08:58:58;7.63;;;6.03;;
13785;SDS011;47474;48.824;9.384;2023-02-28T09:01:25;10.80;;;7.00;;
13785;SDS011;47474;48.824;9.384;2023-02-28T09:03:53;9.03;;;6.33;;
13785;SDS011;47474;48.824;9.384;2023-02-28T09:06:22;8.80;;;6.63;;
13785;SDS011;47474;48.824;9.384;2023-02-28T09:08:50;11.03;;;6.97;;
13785;SDS011;47474;48.824;9.384;2023-02-28T09:11:17;9.93;;;7.20;;
13785;SDS011;47474;48.824;9.384;2023-02-28T09:13:44;8.53;;;7.03;;
13785;SDS011;47474;48.824;9.384;2023-02-28T09:16:11;9.43;;;6.97;;
13785;SDS011;47474;48.824;9.384;2023-02-28T09:18:39;9.03;;;6.23;;
13785;SDS011;47474;48.824;9.384;2023-02-28T09:21:06;11.03;;;6.97;;
13785;SDS011;47474;48.824;9.384;2023-02-28T09:23:34;8.33;;;6.33;;
13785;SDS011;47474;48.824;9.384;2023-02-28T09:26:03;9.07;;;7.00;;
13785;SDS011;47474;48.824;9.384;2023-02-28T09:28:29;8.57;;;6.63;;
13785;SDS011;47474;48.824;9.384;2023-02-28T09:30:56;8.93;;;7.00;;
13785;SDS011;47474;48.824;9.384;2023-02-28T09:33:23;11.97;;;7.37;;
13785;SDS011;47474;48.824;9.384;2023-02-28T09:35:51;8.50;;;6.50;;
13785;SDS011;47474;48.824;9.384;2023-02-28T09:38:23;8.43;;;6.23;;
13785;SDS011;47474;48.824;9.384;2023-02-28T09:40:52;9.30;;;7.20;;
13785;SDS011;47474;48.824;9.384;2023-02-28T09:43:20;10.43;;;7.00;;
13785;SDS011;47474;48.824;9.384;2023-02-28T09:45:48;8.90;;;6.80;;
13785;SDS011;47474;48.824;9.384;2023-02-28T09:48:19;9.70;;;6.30;;
13785;SDS011;47474;48.824;9.384;2023-02-28T09:50:48;8.73;;;6.73;;
13785;SDS011;47474;48.824;9.384;2023-02-28T09:53:18;7.83;;;6.63;;
13785;SDS011;47474;48.824;9.384;2023-02-28T09:55:47;8.77;;;6.40;;
13785;SDS011;47474;48.824;9.384;2023-02-28T09:58:18;11.47;;;6.73;;
13785;SDS011;47474;48.824;9.384;2023-02-28T10:00:46;10.00;;;6.70;;
13785;SDS011;47474;48.824;9.384;2023-02-28T10:03:24;10.27;;;6.70;;
13785;SDS011;47474;48.824;9.384;2023-02-28T10:05:54;9.97;;;6.70;;
13785;SDS011;47474;48.824;9.384;2023-02-28T10:08:24;7.83;;;6.93;;
13785;SDS011;47474;48.824;9.384;2023-02-28T10:10:53;9.37;;;6.23;;
13785;SDS011;47474;48.824;9.384;2023-02-28T10:13:24;8.17;;;7.00;;
13785;SDS011;47474;48.824;9.384;2023-02-28T10:15:53;10.40;;;6.80;;
13785;SDS011;47474;48.824;9.384;2023-02-28T10:18:23;10.13;;;6.97;;
13785;SDS011;47474;48.824;9.384;2023-02-28T10:20:52;8.90;;;6.97;;
13785;SDS011;47474;48.824;9.384;2023-02-28T10:23:21;10.67;;;6.63;;
13785;SDS011;47474;48.824;9.384;2023-02-28T10:25:52;12.47;;;7.83;;
13785;SDS011;47474;48.824;9.384;2023-02-28T10:28:20;6.70;;;6.07;;
13785;SDS011;47474;48.824;9.384;2023-02-28T10:30:49;9.13;;;7.23;;
13785;SDS011;47474;48.824;9.384;2023-02-28T10:33:19;9.20;;;7.00;;
13785;SDS011;47474;48.824;9.384;2023-02-28T10:35:49;10.27;;;7.43;;
13785;SDS011;47474;48.824;9.384;2023-02-28T10:38:17;9.43;;;7.03;;
13785;SDS011;47474;48.824;9.384;2023-02-28T10:40:45;8.47;;;6.90;;
13785;SDS011;47474;48.824;9.384;2023-02-28T10:43:18;8.40;;;6.70;;
13785;SDS011;47474;48.824;9.384;2023-02-28T10:45:55;9.43;;;7.27;;
13785;SDS011;47474;48.824;9.384;2023-02-28T10:48:29;9.07;;;6.93;;
13785;SDS011;47474;48.824;9.384;2023-02-28T10:50:57;8.27;;;7.03;;
13785;SDS011;47474;48.824;9.384;2023-02-28T10:53:31;10.60;;;7.20;;
13785;SDS011;47474;48.824;9.384;2023-02-28T10:56:00;11.43;;;8.23;;
13785;SDS011;47474;48.824;9.384;2023-02-28T10:58:29;7.63;;;6.57;;
13785;SDS011;47474;48.824;9.384;2023-02-28T11:00:58;9.33;;;6.97;;
13785;SDS011;47474;48.824;9.384;2023-02-28T11:03:29;8.07;;;6.30;;
13785;SDS011;47474;48.824;9.384;2023-02-28T11:05:57;7.03;;;6.33;;
13785;SDS011;47474;48.824;9.384;2023-02-28T11:08:24;10.30;;;7.53;;
13785;SDS011;47474;48.824;9.384;2023-02-28T11:10:53;10.83;;;7.70;;
13785;SDS011;47474;48.824;9.384;2023-02-28T11:13:21;10.50;;;7.50;;
13785;SDS011;47474;48.824;9.384;2023-02-28T11:15:53;9.73;;;6.83;;
13785;SDS011;47474;48.824;9.384;2023-02-28T11:18:23;10.00;;;7.27;;
13785;SDS011;47474;48.824;9.384;2023-02-28T11:20:51;9.07;;;7.13;;
13785;SDS011;47474;48.824;9.384;2023-02-28T11:23:19;8.00;;;6.90;;
13785;SDS011;47474;48.824;9.384;2023-02-28T11:25:47;9.97;;;6.83;;
13785;SDS011;47474;48.824;9.384;2023-02-28T11:28:24;9.13;;;6.90;;
13785;SDS011;47474;48.824;9.384;2023-02-28T11:30:59;9.97;;;7.67;;
13785;SDS011;47474;48.824;9.384;2023-02-28T11:33:29;9.43;;;7.20;;
13785;SDS011;47474;48.824;9.384;2023-02-28T11:35:57;8.53;;;6.63;;
13785;SDS011;47474;48.824;9.384;2023-02-28T11:38:25;7.80;;;6.63;;
13785;SDS011;47474;48.824;9.384;2023-02-28T11:40:56;9.53;;;7.23;;
13785;SDS011;47474;48.824;9.384;2023-02-28T11:43:35;7.97;;;6.70;;
13785;SDS011;47474;48.824;9.384;2023-02-28T11:46:14;9.23;;;6.70;;
13785;SDS011;47474;48.824;9.384;2023-02-28T11:48:50;8.43;;;7.10;;
13785;SDS011;47474;48.824;9.384;2023-02-28T11:51:24;8.97;;;6.87;;
13785;SDS011;47474;48.824;9.384;2023-02-28T11:53:57;8.70;;;6.50;;
13785;SDS011;47474;48.824;9.384;2023-02-28T11:56:31;8.60;;;6.97;;
13785;SDS011;47474;48.824;9.384;2023-02-28T11:59:02;8.20;;;6.97;;
13785;SDS011;47474;48.824;9.384;2023-02-28T12:01:38;7.90;;;6.97;;
13785;SDS011;47474;48.824;9.384;2023-02-28T12:04:15;8.50;;;6.87;;
13785;SDS011;47474;48.824;9.384;2023-02-28T12:06:49;7.53;;;6.47;;
13785;SDS011;47474;48.824;9.384;2023-02-28T12:09:29;7.57;;;5.70;;
13785;SDS011;47474;48.824;9.384;2023-02-28T12:12:05;7.37;;;6.20;;
13785;SDS011;47474;48.824;9.384;2023-02-28T12:17:51;7.77;;;6.43;;
13785;SDS011;47474;48.824;9.384;2023-02-28T12:20:28;7.97;;;6.43;;
13785;SDS011;47474;48.824;9.384;2023-02-28T12:23:15;7.53;;;6.03;;
13785;SDS011;47474;48.824;9.384;2023-02-28T12:25:50;10.63;;;6.53;;
13785;SDS011;47474;48.824;9.384;2023-02-28T12:28:23;7.43;;;6.43;;
13785;SDS011;47474;48.824;9.384;2023-02-28T12:30:56;8.10;;;7.30;;
13785;SDS011;47474;48.824;9.384;2023-02-28T12:33:29;8.53;;;6.47;;
13785;SDS011;47474;48.824;9.384;2023-02-28T12:36:00;6.90;;;6.20;;
13785;SDS011;47474;48.824;9.384;2023-02-28T12:38:33;8.97;;;6.60;;
13785;SDS011;47474;48.824;9.384;2023-02-28T12:41:02;8.80;;;6.80;;
13785;SDS011;47474;48.824;9.384;2023-02-28T12:43:33;8.20;;;6.80;;
13785;SDS011;47474;48.824;9.384;2023-02-28T12:46:02;8.70;;;7.33;;
13785;SDS011;47474;48.824;9.384;2023-02-28T12:48:37;9.60;;;7.10;;
13785;SDS011;47474;48.824;9.384;2023-02-28T12:51:08;9.60;;;7.63;;
13785;SDS011;47474;48.824;9.384;2023-02-28T12:53:39;8.00;;;7.00;;
13785;SDS011;47474;48.824;9.384;2023-02-28T12:56:16;9.73;;;6.33;;
13785;SDS011;47474;48.824;9.384;2023-02-28T12:58:48;9.30;;;7.07;;
13785;SDS011;47474;48.824;9.384;2023-02-28T13:01:29;8.00;;;6.63;;
13785;SDS011;47474;48.824;9.384;2023-02-28T13:04:27;8.40;;;6.77;;
13785;SDS011;47474;48.824;9.384;2023-02-28T13:09:52;7.87;;;6.57;;
13785;SDS011;47474;48.824;9.384;2023-02-28T13:12:19;10.20;;;7.00;;
13785;SDS011;47474;48.824;9.384;2023-02-28T13:14:47;7.77;;;6.17;;
13785;SDS011;47474;48.824;9.384;2023-02-28T13:17:17;8.57;;;6.27;;
13785;SDS011;47474;48.824;9.384;2023-02-28T13:19:45;8.17;;;7.07;;
13785;SDS011;47474;48.824;9.384;2023-02-28T13:22:17;8.13;;;6.60;;
13785;SDS011;47474;48.824;9.384;2023-02-28T13:24:47;7.87;;;6.27;;
13785;SDS011;47474;48.824;9.384;2023-02-28T13:29:59;7.93;;;5.90;;
13785;SDS011;47474;48.824;9.384;2023-02-28T13:38:23;8.63;;;7.07;;
13785;SDS011;47474;48.824;9.384;2023-02-28T13:40:52;7.70;;;5.97;;
13785;SDS011;47474;48.824;9.384;2023-02-28T13:43:19;7.10;;;6.40;;
13785;SDS011;47474;48.824;9.384;2023-02-28T13:48:33;8.43;;;6.30;;
13785;SDS011;47474;48.824;9.384;2023-02-28T13:50:59;8.23;;;6.23;;
13785;SDS011;47474;48.824;9.384;2023-02-28T13:53:32;7.93;;;6.43;;
13785;SDS011;47474;48.824;9.384;2023-02-28T13:56:09;7.47;;;6.17;;
13785;SDS011;47474;48.824;9.384;2023-02-28T13:58:46;7.17;;;6.30;;
13785;SDS011;47474;48.824;9.384;2023-02-28T14:01:26;8.03;;;6.10;;
13785;SDS011;47474;48.824;9.384;2023-02-28T14:04:14;8.27;;;6.17;;
13785;SDS011;47474;48.824;9.384;2023-02-28T14:06:54;8.40;;;7.00;;
13785;SDS011;47474;48.824;9.384;2023-02-28T14:09:23;8.33;;;6.13;;
13785;SDS011;47474;48.824;9.384;2023-02-28T14:11:52;8.00;;;6.40;;
13785;SDS011;47474;48.824;9.384;2023-02-28T14:17:21;7.83;;;5.90;;
13785;SDS011;47474;48.824;9.384;2023-02-28T14:19:47;9.33;;;6.07;;
13785;SDS011;47474;48.824;9.384;2023-02-28T14:22:18;7.20;;;5.97;;
13785;SDS011;47474;48.824;9.384;2023-02-28T14:25:03;6.87;;;6.00;;
13785;SDS011;47474;48.824;9.384;2023-02-28T14:27:38;8.13;;;6.17;;
13785;SDS011;47474;48.824;9.384;2023-02-28T14:30:16;7.17;;;5.73;;
13785;SDS011;47474;48.824;9.384;2023-02-28T14:33:08;7.50;;;6.30;;
13785;SDS011;47474;48.824;9.384;2023-02-28T14:35:50;7.30;;;6.33;;
13785;SDS011;47474;48.824;9.384;2023-02-28T14:38:23;9.47;;;6.13;;
13785;SDS011;47474;48.824;9.384;2023-02-28T14:40:52;8.43;;;6.33;;
13785;SDS011;47474;48.824;9.384;2023-02-28T14:43:23;7.07;;;6.30;;
13785;SDS011;47474;48.824;9.384;2023-02-28T14:45:51;8.40;;;6.70;;
13785;SDS011;47474;48.824;9.384;2023-02-28T14:48:20;9.47;;;6.17;;
13785;SDS011;47474;48.824;9.384;2023-02-28T14:50:51;8.90;;;6.50;;
13785;SDS011;47474;48.824;9.384;2023-02-28T14:53:19;7.73;;;6.17;;
13785;SDS011;47474;48.824;9.384;2023-02-28T14:55:48;9.10;;;6.57;;
13785;SDS011;47474;48.824;9.384;2023-02-28T14:58:21;7.33;;;6.30;;
13785;SDS011;47474;48.824;9.384;2023-02-28T15:00:51;8.07;;;7.27;;
13785;SDS011;47474;48.824;9.384;2023-02-28T15:03:20;8.53;;;7.37;;
13785;SDS011;47474;48.824;9.384;2023-02-28T15:05:51;9.23;;;7.23;;
13785;SDS011;47474;48.824;9.384;2023-02-28T15:08:18;7.30;;;6.43;;
13785;SDS011;47474;48.824;9.384;2023-02-28T15:10:49;8.23;;;6.80;;
13785;SDS011;47474;48.824;9.384;2023-02-28T15:13:17;6.57;;;5.87;;
13785;SDS011;47474;48.824;9.384;2023-02-28T15:15:47;8.07;;;6.87;;
13785;SDS011;47474;48.824;9.384;2023-02-28T15:18:16;7.67;;;6.40;;
13785;SDS011;47474;48.824;9.384;2023-02-28T15:20:49;8.03;;;6.47;;
13785;SDS011;47474;48.824;9.384;2023-02-28T15:23:17;9.83;;;7.10;;
13785;SDS011;47474;48.824;9.384;2023-02-28T15:25:44;8.80;;;7.33;;
13785;SDS011;47474;48.824;9.384;2023-02-28T15:28:12;7.20;;;6.47;;
13785;SDS011;47474;48.824;9.384;2023-02-28T15:30:49;8.63;;;6.73;;
13785;SDS011;47474;48.824;9.384;2023-02-28T15:33:19;9.53;;;7.10;;